Time;durP1;ratioP1;P1;durP2;ratioP2;P2;SDS_P1;SDS_P2;PMS_P1;PMS_P2;Temp;Humidity;BMP_temperature;BMP_pressure;BME280_temperature;BME280_humidity;BME280_pressure;Samples;Min_cycle;Max_cycle;Signal;HPM_P1;HPM_P2
2021/10/10 00:01:19;;;;;;;1.57;1.10;;;10.70;98.20;;;;;;5009361;28;20489;-79
2021/10/10 00:03:45;;;;;;;1.60;1.40;;;10.60;98.20;;;;;;5028042;28;20459;-80
2021/10/10 00:06:12;;;;;;;1.50;1.10;;;10.60;98.20;;;;;;5003528;28;20482;-79
2021/10/10 00:08:39;;;;;;;1.57;1.20;;;10.60;98.20;;;;;;5022798;28;20495;-81
2021/10/10 00:11:07;;;;;;;1.60;1.50;;;10.60;98.20;;;;;;5011312;28;21037;-81
2021/10/10 00:13:34;;;;;;;1.57;1.30;;;10.60;98.20;;;;;;5026376;28;20463;-78
2021/10/10 00:16:01;;;;;;;1.53;1.10;;;10.50;98.20;;;;;;5007379;28;20475;-82
2021/10/10 00:18:28;;;;;;;1.53;1.20;;;10.50;98.20;;;;;;5036857;28;20479;-78
2021/10/10 00:20:56;;;;;;;1.70;1.50;;;10.40;98.20;;;;;;5010149;28;20452;-81
2021/10/10 00:23:22;;;;;;;1.60;1.20;;;10.40;98.20;;;;;;5036964;28;20923;-81
2021/10/10 00:25:49;;;;;;;1.57;1.20;;;10.30;98.20;;;;;;5006326;28;20452;-82
2021/10/10 00:28:25;;;;;;;1.50;1.20;;;10.30;98.20;;;;;;5031467;28;21009;-81
2021/10/10 00:30:52;;;;;;;1.50;1.20;;;10.20;98.20;;;;;;5002494;28;20482;-80
2021/10/10 00:33:20;;;;;;;1.57;1.20;;;10.20;98.20;;;;;;5034120;28;20562;-81
2021/10/10 00:35:47;;;;;;;1.53;1.30;;;10.20;98.20;;;;;;5008710;28;20475;-79
2021/10/10 00:38:14;;;;;;;1.53;1.20;;;10.20;98.20;;;;;;5029110;28;20493;-79
2021/10/10 00:40:41;;;;;;;1.60;1.30;;;10.20;98.20;;;;;;5013380;28;20829;-78
2021/10/10 00:43:08;;;;;;;1.50;1.20;;;10.20;98.20;;;;;;5018521;28;20849;-78
2021/10/10 00:45:36;;;;;;;1.60;1.30;;;10.10;98.20;;;;;;5015476;28;20482;-79
2021/10/10 00:48:04;;;;;;;1.53;1.30;;;10.10;98.20;;;;;;5020537;28;20486;-78
2021/10/10 00:50:32;;;;;;;1.60;1.30;;;10.10;98.20;;;;;;5012689;28;20463;-78
2021/10/10 00:53:02;;;;;;;1.50;1.20;;;10.00;98.20;;;;;;5021660;28;20899;-78
2021/10/10 00:55:29;;;;;;;1.57;1.20;;;10.00;98.20;;;;;;5017230;28;20463;-79
2021/10/10 00:57:57;;;;;;;1.60;1.20;;;9.90;98.20;;;;;;5023662;28;20876;-78
2021/10/10 01:00:24;;;;;;;1.57;1.20;;;9.90;98.20;;;;;;5015274;28;20471;-79
2021/10/10 01:02:57;;;;;;;1.50;1.20;;;9.80;98.20;;;;;;5017314;28;20483;-78
2021/10/10 01:05:24;;;;;;;1.50;1.20;;;9.80;98.20;;;;;;5014899;28;20585;-78
2021/10/10 01:07:51;;;;;;;1.57;1.20;;;9.80;98.20;;;;;;5015404;28;20478;-78
2021/10/10 01:10:20;;;;;;;1.57;1.20;;;9.70;98.20;;;;;;5001536;28;21013;-80
2021/10/10 01:12:47;;;;;;;1.50;1.20;;;9.70;98.20;;;;;;5015788;28;20487;-77
2021/10/10 01:15:14;;;;;;;1.53;1.20;;;9.60;98.20;;;;;;5012809;28;20555;-78
2021/10/10 01:17:41;;;;;;;1.60;1.23;;;9.50;98.20;;;;;;4996569;28;20487;-81
2021/10/10 01:20:11;;;;;;;1.53;1.30;;;9.40;98.20;;;;;;5004689;28;20460;-80
2021/10/10 01:22:39;;;;;;;1.60;1.27;;;9.40;98.20;;;;;;5012817;28;20867;-79
2021/10/10 01:25:07;;;;;;;1.60;1.33;;;9.30;98.20;;;;;;5017856;28;20849;-77
2021/10/10 01:27:34;;;;;;;1.57;1.20;;;9.30;98.20;;;;;;5014723;28;20494;-80
2021/10/10 01:30:00;;;;;;;1.57;1.20;;;9.20;98.20;;;;;;5017646;28;20463;-79
2021/10/10 01:32:27;;;;;;;1.60;1.30;;;9.20;98.20;;;;;;5016892;28;20577;-80
2021/10/10 01:34:54;;;;;;;1.60;1.30;;;9.10;98.20;;;;;;5014957;28;20471;-80
2021/10/10 01:37:21;;;;;;;1.60;1.30;;;9.10;98.20;;;;;;5014245;28;20890;-79
2021/10/10 01:39:49;;;;;;;1.60;1.30;;;9.00;98.20;;;;;;5016846;28;20852;-79
2021/10/10 01:42:15;;;;;;;1.60;1.30;;;9.00;98.20;;;;;;5009810;28;20494;-78
2021/10/10 01:44:42;;;;;;;1.60;1.20;;;8.90;98.20;;;;;;5016988;28;21079;-79
2021/10/10 01:47:09;;;;;;;1.60;1.30;;;8.90;98.20;;;;;;5017085;28;20894;-79
2021/10/10 01:49:39;;;;;;;1.60;1.20;;;8.80;98.20;;;;;;5019951;28;20487;-79
2021/10/10 01:52:06;;;;;;;1.57;1.30;;;8.80;98.20;;;;;;5009643;28;20483;-80
2021/10/10 01:54:33;;;;;;;1.60;1.30;;;8.70;98.20;;;;;;5020671;28;20468;-79
2021/10/10 01:57:01;;;;;;;1.60;1.20;;;8.70;98.20;;;;;;5012849;28;20483;-79
2021/10/10 01:59:28;;;;;;;1.60;1.30;;;8.60;98.20;;;;;;5017256;28;20495;-79
2021/10/10 02:01:55;;;;;;;1.60;1.27;;;8.60;98.20;;;;;;5010198;28;20479;-79
2021/10/10 02:04:22;;;;;;;1.60;1.30;;;8.50;98.20;;;;;;5023537;28;20490;-79
2021/10/10 02:06:48;;;;;;;1.60;1.20;;;8.50;98.20;;;;;;5016329;28;21037;-81
2021/10/10 02:09:15;;;;;;;1.60;1.30;;;8.50;98.20;;;;;;5029990;28;20494;-80
2021/10/10 02:11:42;;;;;;;1.60;1.20;;;8.40;98.20;;;;;;5022480;28;20479;-81
2021/10/10 02:14:10;;;;;;;1.60;1.30;;;8.40;98.20;;;;;;5028562;28;20475;-81
2021/10/10 02:16:36;;;;;;;1.60;1.30;;;8.40;98.20;;;;;;5014648;28;20566;-80
2021/10/10 02:19:03;;;;;;;1.60;1.30;;;8.30;98.20;;;;;;5028127;28;20472;-80
2021/10/10 02:21:30;;;;;;;1.60;1.40;;;8.30;98.20;;;;;;5014339;28;20487;-81
2021/10/10 02:23:57;;;;;;;1.60;1.20;;;8.30;98.20;;;;;;5025163;28;20468;-78
2021/10/10 02:26:23;;;;;;;1.60;1.30;;;8.30;98.20;;;;;;5011035;28;20502;-82
2021/10/10 02:28:50;;;;;;;1.60;1.30;;;8.30;98.20;;;;;;5028088;28;20479;-82
2021/10/10 02:31:18;;;;;;;1.60;1.20;;;8.20;98.20;;;;;;5007937;28;20754;-79
2021/10/10 02:33:45;;;;;;;1.60;1.30;;;8.20;98.20;;;;;;5026962;28;20460;-81
2021/10/10 02:36:12;;;;;;;1.60;1.20;;;8.20;98.20;;;;;;5014946;28;20475;-81
2021/10/10 02:38:39;;;;;;;1.60;1.30;;;8.20;98.20;;;;;;5025053;28;20491;-80
2021/10/10 02:41:05;;;;;;;1.60;1.30;;;8.10;98.20;;;;;;4999999;28;20801;-80
2021/10/10 02:43:32;;;;;;;1.60;1.40;;;8.10;98.20;;;;;;5025480;28;20745;-79
2021/10/10 02:45:59;;;;;;;1.60;1.30;;;8.10;98.20;;;;;;4998570;28;20460;-80
2021/10/10 02:48:27;;;;;;;1.60;1.30;;;8.10;98.20;;;;;;5026828;28;20476;-80
2021/10/10 02:50:54;;;;;;;1.60;1.30;;;8.00;98.20;;;;;;4998400;28;20944;-80
2021/10/10 02:53:20;;;;;;;1.60;1.23;;;8.00;98.20;;;;;;5029075;28;20485;-80
2021/10/10 02:55:47;;;;;;;1.60;1.30;;;8.00;98.20;;;;;;5005042;28;20464;-81
2021/10/10 02:58:14;;;;;;;1.60;1.40;;;8.00;98.20;;;;;;5027358;28;20833;-80
2021/10/10 03:00:41;;;;;;;1.60;1.30;;;7.90;98.20;;;;;;5010327;28;20464;-81
2021/10/10 03:03:08;;;;;;;1.60;1.20;;;7.90;98.20;;;;;;5020288;28;20906;-80
2021/10/10 03:05:36;;;;;;;1.60;1.30;;;7.90;98.20;;;;;;5009483;28;20544;-79
2021/10/10 03:08:02;;;;;;;1.60;1.30;;;7.90;98.20;;;;;;5015529;28;20483;-80
2021/10/10 03:10:29;;;;;;;1.60;1.30;;;7.90;98.20;;;;;;5014002;28;20619;-80
2021/10/10 03:12:56;;;;;;;1.60;1.30;;;7.80;98.20;;;;;;5015444;28;20491;-81
2021/10/10 03:15:23;;;;;;;1.60;1.30;;;7.80;98.20;;;;;;5014918;28;20468;-79
2021/10/10 03:17:49;;;;;;;1.60;1.30;;;7.80;98.20;;;;;;5011764;28;20573;-81
2021/10/10 03:20:16;;;;;;;1.60;1.30;;;7.80;98.20;;;;;;5012217;28;20466;-80
2021/10/10 03:22:44;;;;;;;1.60;1.30;;;7.80;98.20;;;;;;5011949;28;20479;-80
2021/10/10 03:25:11;;;;;;;1.60;1.30;;;7.70;98.20;;;;;;5010810;28;20934;-80
2021/10/10 03:27:38;;;;;;;1.60;1.30;;;7.70;98.20;;;;;;5011410;28;20491;-80
2021/10/10 03:30:05;;;;;;;1.60;1.30;;;7.70;98.20;;;;;;5015194;28;20452;-80
2021/10/10 03:32:32;;;;;;;1.60;1.40;;;7.70;98.20;;;;;;5013206;28;20491;-80
2021/10/10 03:34:59;;;;;;;1.60;1.30;;;7.60;98.20;;;;;;5010997;28;21015;-80
2021/10/10 03:37:26;;;;;;;1.60;1.30;;;7.60;98.20;;;;;;5009278;28;20566;-80
2021/10/10 03:39:55;;;;;;;1.60;1.30;;;7.60;98.20;;;;;;5015419;28;20476;-80
2021/10/10 03:42:22;;;;;;;1.60;1.30;;;7.60;98.20;;;;;;5008729;28;20477;-80
2021/10/10 03:44:49;;;;;;;1.60;1.37;;;7.60;98.20;;;;;;5012606;28;20467;-82
2021/10/10 03:47:16;;;;;;;1.60;1.30;;;7.60;98.20;;;;;;5015766;28;20506;-82
2021/10/10 03:49:43;;;;;;;1.60;1.30;;;7.60;98.20;;;;;;5022702;28;20652;-82
2021/10/10 03:52:10;;;;;;;1.60;1.23;;;7.60;98.20;;;;;;5010809;28;20533;-81
2021/10/10 03:57:39;;;;;;;1.60;1.30;;;7.50;98.20;;;;;;5019618;28;20560;-82
2021/10/10 04:00:12;;;;;;;1.60;1.30;;;7.50;98.20;;;;;;5016312;28;20861;-82
2021/10/10 04:02:39;;;;;;;1.60;1.30;;;7.50;98.20;;;;;;5018434;28;20488;-82
2021/10/10 04:05:16;;;;;;;1.60;1.30;;;7.40;98.20;;;;;;5016860;28;20470;-81
2021/10/10 04:07:42;;;;;;;1.60;1.30;;;7.40;98.20;;;;;;5021562;28;20538;-81
2021/10/10 04:10:09;;;;;;;1.60;1.30;;;7.40;98.20;;;;;;5016415;28;20468;-81
2021/10/10 04:12:37;;;;;;;1.60;1.30;;;7.40;98.20;;;;;;5015765;28;20487;-81
2021/10/10 04:15:05;;;;;;;1.60;1.30;;;7.40;98.20;;;;;;5014951;28;20492;-81
2021/10/10 04:17:32;;;;;;;1.60;1.30;;;7.30;98.20;;;;;;5011289;28;20487;-80
2021/10/10 04:19:59;;;;;;;1.60;1.50;;;7.30;98.20;;;;;;5015190;28;20475;-80
2021/10/10 04:22:25;;;;;;;1.60;1.30;;;7.30;98.20;;;;;;5017602;28;20478;-78
2021/10/10 04:24:52;;;;;;;1.60;1.40;;;7.30;98.20;;;;;;5017303;28;20494;-80
2021/10/10 04:27:19;;;;;;;1.60;1.30;;;7.30;98.20;;;;;;5016862;28;20494;-80
2021/10/10 04:29:47;;;;;;;1.60;1.30;;;7.30;98.20;;;;;;5022759;28;20845;-80
2021/10/10 04:32:14;;;;;;;1.60;1.30;;;7.30;98.20;;;;;;5016141;28;20490;-80
2021/10/10 04:34:40;;;;;;;1.60;1.40;;;7.30;98.20;;;;;;5017307;28;20625;-80
2021/10/10 04:37:07;;;;;;;1.60;1.30;;;7.30;98.20;;;;;;5016048;28;20483;-81
2021/10/10 04:39:34;;;;;;;1.60;1.40;;;7.30;98.20;;;;;;5018286;28;20491;-79
2021/10/10 04:42:01;;;;;;;1.60;1.30;;;7.30;98.20;;;;;;5010435;28;20494;-82
2021/10/10 04:44:27;;;;;;;1.60;1.30;;;7.30;98.20;;;;;;5030134;28;20459;-80
2021/10/10 04:46:55;;;;;;;1.60;1.30;;;7.30;98.20;;;;;;5009980;28;20474;-82
2021/10/10 04:49:22;;;;;;;1.60;1.40;;;7.30;98.20;;;;;;5023842;28;20866;-77
2021/10/10 04:51:49;;;;;;;1.60;1.40;;;7.20;98.20;;;;;;5007191;28;20996;-81
2021/10/10 04:54:16;;;;;;;5.67;5.27;;;7.20;98.20;;;;;;5029638;28;20470;-80
2021/10/10 04:56:42;;;;;;;1.60;1.40;;;7.20;98.20;;;;;;5006167;28;20494;-78
2021/10/10 04:59:09;;;;;;;1.60;1.40;;;7.10;98.20;;;;;;5017881;28;20484;-81
2021/10/10 05:01:36;;;;;;;1.60;1.30;;;7.10;98.20;;;;;;5013212;28;20479;-82
2021/10/10 05:04:04;;;;;;;1.60;1.30;;;7.10;98.20;;;;;;5039595;28;20939;-82
2021/10/10 05:06:31;;;;;;;1.60;1.30;;;7.10;98.20;;;;;;5022835;28;20486;-81
2021/10/10 05:08:58;;;;;;;1.60;1.40;;;7.10;98.20;;;;;;5032938;28;20876;-83
2021/10/10 05:11:24;;;;;;;1.60;1.27;;;7.10;98.20;;;;;;5020638;28;20485;-81
2021/10/10 05:13:51;;;;;;;1.60;1.40;;;7.10;98.20;;;;;;5031677;28;20480;-80
2021/10/10 05:16:18;;;;;;;1.70;1.60;;;7.00;98.20;;;;;;5020367;28;20479;-82
2021/10/10 05:18:44;;;;;;;1.60;1.30;;;7.00;98.20;;;;;;5037911;28;20480;-84
2021/10/10 05:21:13;;;;;;;1.60;1.30;;;7.00;98.20;;;;;;5010633;28;20494;-82
2021/10/10 05:23:39;;;;;;;1.60;1.30;;;7.00;98.20;;;;;;5028930;28;20475;-79
2021/10/10 05:26:07;;;;;;;1.60;1.37;;;7.00;98.20;;;;;;5012643;28;20477;-79
2021/10/10 05:28:34;;;;;;;1.60;1.30;;;7.00;98.20;;;;;;5027000;28;20607;-78
2021/10/10 05:31:01;;;;;;;1.60;1.33;;;7.00;98.20;;;;;;5008501;28;20571;-79
2021/10/10 05:33:28;;;;;;;1.60;1.30;;;7.00;98.20;;;;;;5029669;28;20501;-81
2021/10/10 05:35:55;;;;;;;1.60;1.30;;;6.90;98.20;;;;;;5010334;28;20466;-80
2021/10/10 05:38:23;;;;;;;1.60;1.30;;;6.90;98.20;;;;;;5042927;28;20500;-79
2021/10/10 05:40:50;;;;;;;1.60;1.40;;;6.80;98.20;;;;;;5006639;28;20539;-83
2021/10/10 05:43:16;;;;;;;1.60;1.30;;;6.80;98.20;;;;;;5037480;28;20464;-81
2021/10/10 05:45:43;;;;;;;1.70;1.50;;;6.80;98.20;;;;;;5028844;28;20473;-83
2021/10/10 05:48:10;;;;;;;1.60;1.40;;;6.80;98.20;;;;;;5035310;28;20491;-83
2021/10/10 05:50:37;;;;;;;1.60;1.27;;;6.90;98.20;;;;;;5022922;28;20583;-82
2021/10/10 05:53:07;;;;;;;1.60;1.30;;;6.90;98.20;;;;;;5031946;28;20479;-83
2021/10/10 05:55:37;;;;;;;1.60;1.40;;;6.90;98.20;;;;;;5022291;28;21018;-82
2021/10/10 05:58:05;;;;;;;1.60;1.37;;;6.90;98.20;;;;;;5035498;28;20518;-82
2021/10/10 06:00:32;;;;;;;1.60;1.30;;;6.90;98.20;;;;;;5019660;28;20504;-83
2021/10/10 06:02:59;;;;;;;1.60;1.30;;;6.90;98.20;;;;;;5023056;28;20474;-82
2021/10/10 06:05:25;;;;;;;1.60;1.30;;;7.00;98.20;;;;;;5017630;28;20452;-79
2021/10/10 06:07:52;;;;;;;1.60;1.30;;;7.00;98.20;;;;;;5024642;28;20506;-80
2021/10/10 06:10:19;;;;;;;1.60;1.30;;;7.00;98.20;;;;;;5015975;28;20463;-80
2021/10/10 06:12:47;;;;;;;1.60;1.30;;;7.00;98.20;;;;;;5019532;28;20479;-81
2021/10/10 06:15:14;;;;;;;1.60;1.30;;;7.00;98.20;;;;;;5015458;28;20612;-81
2021/10/10 06:17:41;;;;;;;1.60;1.40;;;7.00;98.20;;;;;;5022708;28;20505;-81
2021/10/10 06:20:09;;;;;;;1.60;1.30;;;7.10;98.20;;;;;;5017175;28;20456;-84
2021/10/10 06:22:37;;;;;;;1.60;1.20;;;7.10;98.20;;;;;;5018524;28;20478;-79
2021/10/10 06:25:05;;;;;;;1.60;1.30;;;7.10;98.20;;;;;;5018846;28;20468;-78
2021/10/10 06:27:32;;;;;;;1.60;1.30;;;7.20;98.20;;;;;;5014908;28;20475;-79
2021/10/10 06:30:01;;;;;;;1.60;1.30;;;7.30;98.20;;;;;;5014355;28;20466;-80
2021/10/10 06:32:27;;;;;;;1.60;1.30;;;7.30;98.20;;;;;;5017352;28;20514;-82
2021/10/10 06:34:54;;;;;;;1.60;1.30;;;7.50;98.20;;;;;;5021214;28;20475;-79
2021/10/10 06:37:21;;;;;;;1.60;1.30;;;7.50;98.20;;;;;;5021679;28;20956;-82
2021/10/10 06:39:47;;;;;;;1.60;1.30;;;7.60;98.20;;;;;;5027108;28;20723;-80
2021/10/10 06:42:15;;;;;;;1.60;1.40;;;7.70;98.20;;;;;;5014218;28;20478;-80
2021/10/10 06:44:42;;;;;;;1.63;1.40;;;7.80;98.20;;;;;;5025915;28;20546;-80
2021/10/10 06:47:11;;;;;;;1.60;1.20;;;7.90;98.20;;;;;;5012885;28;21072;-83
2021/10/10 06:49:37;;;;;;;1.60;1.30;;;8.00;98.20;;;;;;5022506;28;20491;-80
2021/10/10 06:52:05;;;;;;;1.60;1.30;;;8.20;98.20;;;;;;5012033;28;21073;-81
2021/10/10 06:54:31;;;;;;;1.60;1.30;;;8.30;98.20;;;;;;5022424;28;21011;-81
2021/10/10 06:56:58;;;;;;;1.60;1.30;;;8.40;98.20;;;;;;5008195;28;21021;-80
2021/10/10 06:59:25;;;;;;;1.60;1.20;;;8.50;98.20;;;;;;5024135;28;20487;-80
2021/10/10 07:01:51;;;;;;;1.60;1.30;;;8.60;98.20;;;;;;5009713;28;20490;-81
2021/10/10 07:04:19;;;;;;;1.60;1.30;;;8.60;98.20;;;;;;5026267;28;20476;-82
2021/10/10 07:06:46;;;;;;;1.60;1.30;;;8.70;98.20;;;;;;5008000;28;20486;-79
2021/10/10 07:09:13;;;;;;;1.60;1.27;;;8.80;98.20;;;;;;5022736;28;20540;-79
2021/10/10 07:11:40;;;;;;;1.60;1.30;;;8.90;98.20;;;;;;5006182;28;21009;-80
2021/10/10 07:14:07;;;;;;;1.60;1.30;;;9.00;98.20;;;;;;5026331;28;21006;-79
2021/10/10 07:16:34;;;;;;;1.60;1.30;;;9.00;98.20;;;;;;5006653;28;21083;-82
2021/10/10 07:19:01;;;;;;;1.60;1.20;;;9.10;98.20;;;;;;5022309;28;21013;-81
2021/10/10 07:21:44;;;;;;;1.60;1.20;;;9.30;98.20;;;;;;5006531;28;20478;-79
2021/10/10 07:26:55;;;;;;;1.73;1.27;;;9.50;98.20;;;;;;5013920;28;20592;-79
2021/10/10 07:29:22;;;;;;;1.57;1.23;;;9.70;98.20;;;;;;5019373;28;21018;-83
2021/10/10 07:31:49;;;;;;;1.60;1.20;;;9.90;98.20;;;;;;5005836;28;21080;-78
2021/10/10 07:34:25;;;;;;;2.53;2.33;;;10.10;98.20;;;;;;5019740;28;20690;-80
2021/10/10 07:36:56;;;;;;;1.60;1.20;;;10.20;98.20;;;;;;5008087;28;20486;-82
2021/10/10 07:39:25;;;;;;;1.53;1.20;;;10.40;98.20;;;;;;5018215;28;20569;-82
2021/10/10 07:41:54;;;;;;;1.60;1.10;;;10.50;98.20;;;;;;5006347;28;20487;-82
2021/10/10 07:44:23;;;;;;;1.60;1.30;;;10.70;98.20;;;;;;5018194;28;20957;-81
2021/10/10 07:49:35;;;;;;;1.60;1.20;;;10.90;98.20;;;;;;4992981;28;20478;-82
2021/10/10 07:52:03;;;;;;;1.60;1.30;;;11.00;98.20;;;;;;5010007;28;20517;-82
2021/10/10 07:54:31;;;;;;;1.57;1.17;;;11.20;98.20;;;;;;5017068;28;20583;-80
2021/10/10 07:56:57;;;;;;;1.53;1.20;;;11.30;98.20;;;;;;5008125;28;20475;-80
2021/10/10 07:59:24;;;;;;;1.53;1.20;;;11.40;98.20;;;;;;5017782;28;20492;-80
2021/10/10 08:01:52;;;;;;;1.60;1.20;;;11.50;98.20;;;;;;5006009;28;20899;-80
2021/10/10 08:04:19;;;;;;;1.53;1.00;;;11.60;98.20;;;;;;5021036;28;20479;-78
2021/10/10 08:06:47;;;;;;;1.53;1.10;;;11.70;98.20;;;;;;5008506;28;20483;-79
2021/10/10 08:09:15;;;;;;;1.53;1.10;;;11.80;98.20;;;;;;5029242;28;20837;-80
2021/10/10 08:11:42;;;;;;;1.60;1.20;;;11.90;98.20;;;;;;5020625;28;20470;-81
2021/10/10 08:14:10;;;;;;;1.53;1.00;;;12.00;98.20;;;;;;5034038;28;20941;-79
2021/10/10 08:16:37;;;;;;;1.53;1.10;;;12.00;98.20;;;;;;5012786;28;20483;-80
2021/10/10 08:19:04;;;;;;;1.53;1.10;;;12.10;98.20;;;;;;5017137;28;20488;-79
2021/10/10 08:21:31;;;;;;;1.57;1.10;;;12.20;98.20;;;;;;5014346;28;20490;-82
2021/10/10 08:23:58;;;;;;;1.57;1.10;;;12.20;98.20;;;;;;5032909;28;20459;-80
2021/10/10 08:26:26;;;;;;;1.57;1.10;;;12.30;98.20;;;;;;5015197;28;20486;-82
2021/10/10 08:28:52;;;;;;;1.57;1.10;;;12.40;97.90;;;;;;5028836;28;20508;-83
2021/10/10 08:31:19;;;;;;;1.60;1.13;;;12.40;97.90;;;;;;5002608;28;20492;-82
2021/10/10 08:33:46;;;;;;;1.60;1.10;;;12.40;98.20;;;;;;5033205;28;20588;-82
2021/10/10 08:36:13;;;;;;;1.57;1.10;;;12.50;98.20;;;;;;5013611;28;21123;-81
2021/10/10 08:38:41;;;;;;;1.57;1.10;;;12.60;97.80;;;;;;5035494;28;20498;-80
2021/10/10 08:41:08;;;;;;;1.50;1.00;;;12.70;97.90;;;;;;5012062;28;20946;-80
2021/10/10 08:43:38;;;;;;;1.60;1.10;;;12.80;97.40;;;;;;5035204;28;20470;-81
2021/10/10 08:46:06;;;;;;;1.60;1.10;;;12.90;97.30;;;;;;5014168;28;20475;-81
2021/10/10 08:48:33;;;;;;;1.50;1.10;;;13.00;97.20;;;;;;5028646;28;20488;-81
2021/10/10 08:51:00;;;;;;;1.57;1.00;;;13.10;97.10;;;;;;5010040;28;20476;-78
2021/10/10 08:53:27;;;;;;;1.53;0.90;;;13.10;96.60;;;;;;5039947;28;20713;-80
2021/10/10 08:55:54;;;;;;;1.50;1.00;;;13.20;96.70;;;;;;5016983;28;20464;-82
2021/10/10 08:58:22;;;;;;;1.57;1.10;;;13.20;95.80;;;;;;5040264;28;20479;-80
2021/10/10 09:00:59;;;;;;;1.50;1.00;;;13.30;96.50;;;;;;5008721;28;20498;-81
2021/10/10 09:03:27;;;;;;;1.60;1.10;;;13.40;96.30;;;;;;5031164;28;20481;-79
2021/10/10 09:05:54;;;;;;;1.57;1.07;;;13.40;95.30;;;;;;5015709;28;20546;-85
2021/10/10 09:08:22;;;;;;;1.53;1.00;;;13.50;94.90;;;;;;5033353;28;20497;-83
2021/10/10 09:10:58;;;;;;;1.57;0.90;;;13.50;94.80;;;;;;5007416;28;20463;-82
2021/10/10 09:13:32;;;;;;;1.50;1.00;;;13.50;95.30;;;;;;5032805;28;20458;-81
2021/10/10 09:16:14;;;;;;;1.50;1.00;;;13.50;95.20;;;;;;5006303;28;20460;-83
2021/10/10 09:18:43;;;;;;;1.57;1.10;;;13.60;95.30;;;;;;5030327;28;20483;-84
2021/10/10 09:21:15;;;;;;;1.60;1.10;;;13.70;95.10;;;;;;5011091;28;20555;-84
2021/10/10 09:23:46;;;;;;;1.60;1.00;;;13.80;94.40;;;;;;5026954;28;21068;-84
2021/10/10 09:26:13;;;;;;;1.53;1.00;;;13.70;94.00;;;;;;5016487;28;20478;-82
2021/10/10 09:28:41;;;;;;;1.60;1.00;;;13.60;94.20;;;;;;5028497;28;20546;-81
2021/10/10 09:31:09;;;;;;;1.53;1.03;;;13.60;94.20;;;;;;5004973;28;20869;-80
2021/10/10 09:33:38;;;;;;;1.60;1.13;;;13.60;94.60;;;;;;5031292;28;20496;-83
2021/10/10 09:36:10;;;;;;;1.60;1.10;;;13.60;95.00;;;;;;5005976;28;20472;-82
2021/10/10 09:38:43;;;;;;;1.60;1.10;;;13.70;94.20;;;;;;5024076;28;20500;-82
2021/10/10 09:41:16;;;;;;;1.57;1.10;;;13.70;94.60;;;;;;5007678;28;20903;-83
2021/10/10 09:44:08;;;;;;;1.50;1.00;;;13.80;93.90;;;;;;5033712;28;20468;-80
2021/10/10 09:46:40;;;;;;;1.50;1.07;;;13.90;94.00;;;;;;5009085;28;20910;-80
2021/10/10 09:49:21;;;;;;;1.53;1.00;;;14.00;94.40;;;;;;5029307;28;20522;-81
2021/10/10 09:51:50;;;;;;;1.53;1.00;;;14.10;94.00;;;;;;5012005;28;20483;-78
2021/10/10 09:54:17;;;;;;;1.60;1.00;;;14.20;94.80;;;;;;5025281;28;21109;-78
2021/10/10 09:57:03;;;;;;;1.57;1.00;;;14.30;93.20;;;;;;5012951;28;20519;-80
2021/10/10 09:59:30;;;;;;;1.60;1.10;;;14.30;93.40;;;;;;5020918;28;20484;-79
2021/10/10 10:01:59;;;;;;;1.60;1.10;;;14.30;92.70;;;;;;5015862;28;20486;-80
2021/10/10 10:04:26;;;;;;;1.60;1.10;;;14.40;93.70;;;;;;5028341;28;20491;-82
2021/10/10 10:06:53;;;;;;;1.53;1.00;;;14.50;93.30;;;;;;5021412;28;21044;-83
2021/10/10 10:09:20;;;;;;;1.57;1.00;;;14.50;93.60;;;;;;5028152;28;21032;-80
2021/10/10 10:11:48;;;;;;;1.50;1.00;;;14.60;94.00;;;;;;5019937;28;20538;-82
2021/10/10 10:14:16;;;;;;;1.60;1.10;;;14.80;93.60;;;;;;5035938;28;20487;-80
2021/10/10 10:16:45;;;;;;;1.60;1.00;;;14.90;92.90;;;;;;5012520;28;20859;-80
2021/10/10 10:19:16;;;;;;;1.53;1.00;;;15.00;93.00;;;;;;5022323;28;20562;-79
2021/10/10 10:21:44;;;;;;;1.50;1.00;;;15.00;91.80;;;;;;5018669;28;20479;-79
2021/10/10 10:24:12;;;;;;;3.20;2.90;;;15.00;92.10;;;;;;5029829;28;20472;-79
2021/10/10 10:26:40;;;;;;;1.57;1.03;;;15.10;93.30;;;;;;5009293;28;20565;-79
2021/10/10 10:29:13;;;;;;;2.33;1.87;;;15.20;92.60;;;;;;5025072;28;20484;-81
2021/10/10 10:31:45;;;;;;;1.50;1.00;;;15.30;93.00;;;;;;5010159;28;20514;-81
2021/10/10 10:34:22;;;;;;;1.60;1.10;;;15.40;92.10;;;;;;5028222;28;20645;-79
2021/10/10 10:36:57;;;;;;;1.50;0.90;;;15.60;92.10;;;;;;5007010;28;20561;-81
2021/10/10 10:39:41;;;;;;;1.53;1.00;;;15.70;93.00;;;;;;5014621;28;21071;-78
2021/10/10 10:42:09;;;;;;;1.50;1.00;;;15.80;91.90;;;;;;5005520;28;20562;-78
2021/10/10 10:44:42;;;;;;;1.53;1.00;;;16.00;91.50;;;;;;5018428;28;20468;-79
2021/10/10 10:47:11;;;;;;;1.50;1.00;;;16.20;90.40;;;;;;5015683;28;20537;-79
2021/10/10 10:50:02;;;;;;;1.60;1.10;;;16.30;91.10;;;;;;5013770;28;20499;-81
2021/10/10 10:52:32;;;;;;;1.53;1.00;;;16.50;89.70;;;;;;5013696;28;20563;-78
2021/10/10 10:54:59;;;;;;;1.53;1.00;;;16.60;88.90;;;;;;5006067;28;20807;-79
2021/10/10 10:57:34;;;;;;;1.53;1.00;;;16.60;88.60;;;;;;5004639;28;20803;-79
2021/10/10 11:00:07;;;;;;;1.50;1.00;;;16.70;88.40;;;;;;5004282;28;20586;-78
2021/10/10 11:02:50;;;;;;;1.57;1.00;;;16.80;89.10;;;;;;5009696;28;20902;-79
2021/10/10 11:05:47;;;;;;;1.60;1.10;;;16.90;87.20;;;;;;5007144;28;20464;-80
2021/10/10 11:08:35;;;;;;;1.50;0.90;;;16.90;87.70;;;;;;4944857;28;20978;-80
2021/10/10 11:11:16;;;;;;;1.50;0.90;;;16.90;87.30;;;;;;4995998;28;20468;-80
2021/10/10 11:13:49;;;;;;;1.50;0.97;;;16.90;87.10;;;;;;5019326;28;20966;-79
2021/10/10 11:16:18;;;;;;;1.50;0.90;;;16.80;87.30;;;;;;5004049;28;20494;-83
2021/10/10 11:18:47;;;;;;;1.50;0.90;;;16.80;87.80;;;;;;5022242;28;20493;-81
2021/10/10 11:21:17;;;;;;;1.80;1.47;;;17.00;88.70;;;;;;5000309;28;20518;-80
2021/10/10 11:23:49;;;;;;;1.50;0.90;;;17.10;87.70;;;;;;5020183;28;20493;-81
2021/10/10 11:26:16;;;;;;;1.50;0.90;;;17.20;87.20;;;;;;4998634;28;20475;-78
2021/10/10 11:28:45;;;;;;;1.50;0.90;;;17.30;86.60;;;;;;5028758;28;21083;-78
2021/10/10 11:31:15;;;;;;;1.50;1.00;;;17.30;87.30;;;;;;5001302;28;20486;-81
2021/10/10 11:33:45;;;;;;;1.60;1.00;;;17.40;86.90;;;;;;5015951;28;20491;-77
2021/10/10 11:36:12;;;;;;;1.50;1.00;;;17.40;87.40;;;;;;4998671;28;20482;-79
2021/10/10 11:38:55;;;;;;;1.50;1.00;;;17.50;87.30;;;;;;5013653;28;21218;-80
2021/10/10 11:41:24;;;;;;;1.50;0.90;;;17.50;85.70;;;;;;4996308;28;20487;-79
2021/10/10 11:43:59;;;;;;;1.53;1.00;;;17.50;86.40;;;;;;5023281;28;20541;-79
2021/10/10 11:46:27;;;;;;;1.53;1.00;;;17.50;86.10;;;;;;4991420;28;21083;-78
2021/10/10 11:48:55;;;;;;;1.57;1.00;;;17.60;86.10;;;;;;5013191;28;20515;-81
2021/10/10 11:51:35;;;;;;;1.50;1.00;;;17.40;84.90;;;;;;5000093;28;20490;-78
2021/10/10 11:54:04;;;;;;;1.50;1.00;;;17.30;85.90;;;;;;5009598;28;20464;-79
2021/10/10 11:56:32;;;;;;;1.50;1.00;;;17.30;87.00;;;;;;5003474;28;20482;-80
2021/10/10 11:59:12;;;;;;;1.50;0.90;;;17.20;86.00;;;;;;5015729;28;20484;-81
2021/10/10 12:01:39;;;;;;;1.53;1.00;;;17.20;86.30;;;;;;4999749;28;21181;-78
2021/10/10 12:04:06;;;;;;;1.60;1.20;;;17.20;86.10;;;;;;5016828;28;20482;-80
2021/10/10 12:06:33;;;;;;;1.50;1.00;;;17.20;88.10;;;;;;5000566;28;20487;-77
2021/10/10 12:09:11;;;;;;;1.50;0.93;;;17.20;86.60;;;;;;5035554;28;20483;-80
2021/10/10 12:11:39;;;;;;;1.50;1.00;;;17.30;87.10;;;;;;5003015;28;20487;-80
2021/10/10 12:14:06;;;;;;;1.53;1.00;;;17.40;89.10;;;;;;5005948;28;20854;-79
2021/10/10 12:16:41;;;;;;;1.50;1.00;;;17.60;87.40;;;;;;5006147;28;20537;-78
2021/10/10 12:19:08;;;;;;;1.50;1.00;;;17.70;86.10;;;;;;5027418;28;20499;-77
2021/10/10 12:21:36;;;;;;;1.57;1.00;;;17.80;86.50;;;;;;5005541;28;20479;-78
2021/10/10 12:24:10;;;;;;;1.50;1.00;;;17.90;88.30;;;;;;5024789;28;20959;-81
2021/10/10 12:26:48;;;;;;;1.50;1.00;;;18.00;85.30;;;;;;5006733;28;21177;-78
2021/10/10 12:29:20;;;;;;;1.50;1.00;;;18.00;84.40;;;;;;5022544;28;20479;-78
2021/10/10 12:31:47;;;;;;;1.53;1.00;;;17.80;85.10;;;;;;4993931;28;20830;-76
2021/10/10 12:34:14;;;;;;;1.60;1.00;;;18.00;87.70;;;;;;5027391;28;20464;-80
2021/10/10 12:36:45;;;;;;;1.50;0.90;;;18.20;87.90;;;;;;5004402;28;20981;-79
2021/10/10 12:39:14;;;;;;;1.50;1.00;;;18.30;86.20;;;;;;5018508;28;20871;-77
2021/10/10 12:41:41;;;;;;;1.53;1.00;;;18.30;84.70;;;;;;5005178;28;20483;-78
2021/10/10 12:44:16;;;;;;;1.53;0.90;;;18.30;84.90;;;;;;5027710;28;20472;-80
2021/10/10 12:46:49;;;;;;;1.50;0.90;;;18.50;84.90;;;;;;5002733;28;20576;-78
2021/10/10 12:49:28;;;;;;;1.53;1.00;;;18.60;87.00;;;;;;5015968;28;20995;-78
2021/10/10 12:51:55;;;;;;;1.50;0.90;;;18.70;86.40;;;;;;5007724;28;20781;-79
2021/10/10 12:54:26;;;;;;;1.53;0.90;;;18.80;85.60;;;;;;5014874;28;20470;-78
2021/10/10 12:57:02;;;;;;;1.50;0.93;;;18.90;84.30;;;;;;5011340;28;20486;-82
2021/10/10 12:59:29;;;;;;;1.50;1.00;;;18.90;84.50;;;;;;5022721;28;20566;-78
2021/10/10 13:01:56;;;;;;;1.50;1.00;;;19.00;83.60;;;;;;5008043;28;20791;-79
2021/10/10 13:04:23;;;;;;;1.50;0.90;;;19.00;85.40;;;;;;5016044;28;20547;-75
2021/10/10 13:06:51;;;;;;;1.50;0.90;;;19.00;83.50;;;;;;5005811;28;20517;-75
2021/10/10 13:09:20;;;;;;;1.60;1.10;;;19.00;84.30;;;;;;5009944;28;20778;-76